SADR31 MDSD 231200Z
METAR

METAR MDPP 231200Z 00000KT 9999 SCT018 26/24 Q1016=
METAR MDST 231200Z 11008KT 9999 SCT016 BKN300 25/24 Q1017=
METAR MDPC 231200Z 10012KT 9999 FEW020 SCT080 BKN300 28/24 Q1017=
METAR MDBH 231200Z 00000KT 9999 FEW016CB SCT018 26/23 Q1016 CB/SW/NW=
METAR MDJB 231200Z 00000KT 9999 FEW018 OVC300 25/23 Q1017=
METAR MDSD 231200Z 06006KT 9999 FEW018 BKN300 25/23 Q1017=
METAR MDLR 231200Z 00000KT 9999 SCT016 BKN070 26/25 Q1017=
METAR MDCY 231200Z 00000KT 9999 BKN016 BKN300 25/25 Q1016=
METAR MDAB 231200Z 00000KT 9999 SCT017 BKN300 27/25 Q1016=